sensor_id;sensor_type;location;lat;lon;timestamp;temperature;humidity
55313;DHT22;46892;45.668;11.756;2022-09-09T00:01:30;20.50;82.70
55313;DHT22;46892;45.668;11.756;2022-09-09T00:04:26;20.40;82.00
55313;DHT22;46892;45.668;11.756;2022-09-09T00:07:47;20.20;83.00
55313;DHT22;46892;45.668;11.756;2022-09-09T00:10:29;20.10;83.30
55313;DHT22;46892;45.668;11.756;2022-09-09T00:21:13;20.20;83.10
55313;DHT22;46892;45.668;11.756;2022-09-09T00:23:47;20.30;82.20
55313;DHT22;46892;45.668;11.756;2022-09-09T00:28:55;20.20;83.00
55313;DHT22;46892;45.668;11.756;2022-09-09T00:31:28;20.10;83.10
55313;DHT22;46892;45.668;11.756;2022-09-09T00:33:55;20.10;82.70
55313;DHT22;46892;45.668;11.756;2022-09-09T00:36:26;20.10;83.00
55313;DHT22;46892;45.668;11.756;2022-09-09T00:38:59;20.20;82.60
55313;DHT22;46892;45.668;11.756;2022-09-09T00:41:45;20.20;82.50
55313;DHT22;46892;45.668;11.756;2022-09-09T00:53:33;20.30;81.70
55313;DHT22;46892;45.668;11.756;2022-09-09T00:56:20;20.10;82.50
55313;DHT22;46892;45.668;11.756;2022-09-09T00:59:24;20.00;82.50
55313;DHT22;46892;45.668;11.756;2022-09-09T01:01:53;20.10;82.50
55313;DHT22;46892;45.668;11.756;2022-09-09T01:04:29;20.00;82.10
55313;DHT22;46892;45.668;11.756;2022-09-09T01:07:07;19.80;82.50
55313;DHT22;46892;45.668;11.756;2022-09-09T01:09:54;19.80;83.00
55313;DHT22;46892;45.668;11.756;2022-09-09T01:12:27;19.90;82.70
55313;DHT22;46892;45.668;11.756;2022-09-09T01:15:18;19.90;83.00
55313;DHT22;46892;45.668;11.756;2022-09-09T01:17:54;19.80;83.30
55313;DHT22;46892;45.668;11.756;2022-09-09T01:20:36;19.90;83.50
55313;DHT22;46892;45.668;11.756;2022-09-09T01:28:51;19.90;81.80
55313;DHT22;46892;45.668;11.756;2022-09-09T01:31:24;19.80;82.50
55313;DHT22;46892;45.668;11.756;2022-09-09T01:33:52;19.80;83.10
55313;DHT22;46892;45.668;11.756;2022-09-09T01:36:20;19.80;83.20
55313;DHT22;46892;45.668;11.756;2022-09-09T01:38:46;19.80;83.10
55313;DHT22;46892;45.668;11.756;2022-09-09T01:41:12;19.70;83.20
55313;DHT22;46892;45.668;11.756;2022-09-09T01:43:38;19.70;83.40
55313;DHT22;46892;45.668;11.756;2022-09-09T01:46:04;19.70;83.30
55313;DHT22;46892;45.668;11.756;2022-09-09T01:48:30;19.70;83.10
55313;DHT22;46892;45.668;11.756;2022-09-09T01:50:56;19.80;82.80
55313;DHT22;46892;45.668;11.756;2022-09-09T01:53:22;19.90;82.60
55313;DHT22;46892;45.668;11.756;2022-09-09T01:56:02;20.10;82.10
55313;DHT22;46892;45.668;11.756;2022-09-09T02:07:10;20.00;82.00
55313;DHT22;46892;45.668;11.756;2022-09-09T02:09:41;20.10;81.90
55313;DHT22;46892;45.668;11.756;2022-09-09T02:12:14;20.00;81.80
55313;DHT22;46892;45.668;11.756;2022-09-09T02:14:48;19.90;82.20
55313;DHT22;46892;45.668;11.756;2022-09-09T02:17:21;19.90;82.40
55313;DHT22;46892;45.668;11.756;2022-09-09T02:19:54;19.90;82.50
55313;DHT22;46892;45.668;11.756;2022-09-09T02:22:23;19.80;82.60
55313;DHT22;46892;45.668;11.756;2022-09-09T02:24:51;19.90;82.60
55313;DHT22;46892;45.668;11.756;2022-09-09T02:27:20;19.90;82.60
55313;DHT22;46892;45.668;11.756;2022-09-09T02:29:49;19.90;82.60
55313;DHT22;46892;45.668;11.756;2022-09-09T02:32:21;19.90;82.40
55313;DHT22;46892;45.668;11.756;2022-09-09T02:34:56;19.90;82.40
55313;DHT22;46892;45.668;11.756;2022-09-09T02:37:26;19.90;82.60
55313;DHT22;46892;45.668;11.756;2022-09-09T02:39:54;19.80;82.60
55313;DHT22;46892;45.668;11.756;2022-09-09T02:42:20;19.90;82.60
55313;DHT22;46892;45.668;11.756;2022-09-09T02:44:46;19.90;82.60
55313;DHT22;46892;45.668;11.756;2022-09-09T02:47:34;20.00;82.50
55313;DHT22;46892;45.668;11.756;2022-09-09T02:50:13;20.00;82.50
55313;DHT22;46892;45.668;11.756;2022-09-09T02:55:41;20.00;82.40
55313;DHT22;46892;45.668;11.756;2022-09-09T02:58:13;20.00;82.50
55313;DHT22;46892;45.668;11.756;2022-09-09T03:00:42;20.00;82.30
55313;DHT22;46892;45.668;11.756;2022-09-09T03:03:09;20.00;82.40
55313;DHT22;46892;45.668;11.756;2022-09-09T03:05:35;20.10;82.20
55313;DHT22;46892;45.668;11.756;2022-09-09T03:08:01;20.20;82.00
55313;DHT22;46892;45.668;11.756;2022-09-09T03:10:27;20.20;81.90
55313;DHT22;46892;45.668;11.756;2022-09-09T03:12:53;20.20;81.80
55313;DHT22;46892;45.668;11.756;2022-09-09T03:15:19;20.20;81.80
55313;DHT22;46892;45.668;11.756;2022-09-09T03:17:44;20.20;81.50
55313;DHT22;46892;45.668;11.756;2022-09-09T03:20:10;20.20;81.60
55313;DHT22;46892;45.668;11.756;2022-09-09T03:22:35;20.30;81.20
55313;DHT22;46892;45.668;11.756;2022-09-09T03:25:01;20.30;81.20
55313;DHT22;46892;45.668;11.756;2022-09-09T03:27:28;20.30;81.30
55313;DHT22;46892;45.668;11.756;2022-09-09T03:29:54;20.40;81.10
55313;DHT22;46892;45.668;11.756;2022-09-09T03:32:21;20.40;80.70
55313;DHT22;46892;45.668;11.756;2022-09-09T03:34:48;20.50;80.70
55313;DHT22;46892;45.668;11.756;2022-09-09T03:37:16;20.40;80.70
55313;DHT22;46892;45.668;11.756;2022-09-09T03:39:43;20.40;81.20
55313;DHT22;46892;45.668;11.756;2022-09-09T03:42:08;20.40;80.80
55313;DHT22;46892;45.668;11.756;2022-09-09T03:44:34;20.50;80.40
55313;DHT22;46892;45.668;11.756;2022-09-09T03:47:00;20.40;80.50
55313;DHT22;46892;45.668;11.756;2022-09-09T03:49:26;20.30;80.40
55313;DHT22;46892;45.668;11.756;2022-09-09T03:51:55;20.30;80.60
55313;DHT22;46892;45.668;11.756;2022-09-09T03:54:22;20.20;80.90
55313;DHT22;46892;45.668;11.756;2022-09-09T03:56:48;20.30;80.90
55313;DHT22;46892;45.668;11.756;2022-09-09T03:59:14;20.20;81.00
55313;DHT22;46892;45.668;11.756;2022-09-09T04:01:39;20.20;81.00
55313;DHT22;46892;45.668;11.756;2022-09-09T04:04:05;20.20;81.00
55313;DHT22;46892;45.668;11.756;2022-09-09T04:06:31;20.30;80.80
55313;DHT22;46892;45.668;11.756;2022-09-09T04:08:56;20.30;80.50
55313;DHT22;46892;45.668;11.756;2022-09-09T04:11:22;20.50;80.20
55313;DHT22;46892;45.668;11.756;2022-09-09T04:13:48;20.50;79.70
55313;DHT22;46892;45.668;11.756;2022-09-09T04:16:14;20.50;79.90
55313;DHT22;46892;45.668;11.756;2022-09-09T04:18:40;20.50;79.90
55313;DHT22;46892;45.668;11.756;2022-09-09T04:21:08;20.50;80.10
55313;DHT22;46892;45.668;11.756;2022-09-09T04:23:33;20.30;80.60
55313;DHT22;46892;45.668;11.756;2022-09-09T04:26:01;20.30;80.40
55313;DHT22;46892;45.668;11.756;2022-09-09T04:28:30;20.30;80.40
55313;DHT22;46892;45.668;11.756;2022-09-09T04:30:56;20.30;80.30
55313;DHT22;46892;45.668;11.756;2022-09-09T04:33:24;20.30;80.30
55313;DHT22;46892;45.668;11.756;2022-09-09T04:35:52;20.00;80.70
55313;DHT22;46892;45.668;11.756;2022-09-09T04:38:19;19.90;81.50
55313;DHT22;46892;45.668;11.756;2022-09-09T04:40:50;19.80;82.20
55313;DHT22;46892;45.668;11.756;2022-09-09T04:43:17;19.80;82.00
55313;DHT22;46892;45.668;11.756;2022-09-09T04:45:47;19.80;82.20
55313;DHT22;46892;45.668;11.756;2022-09-09T04:48:13;19.70;82.40
55313;DHT22;46892;45.668;11.756;2022-09-09T04:50:39;19.70;82.50
55313;DHT22;46892;45.668;11.756;2022-09-09T04:53:06;19.70;82.80
55313;DHT22;46892;45.668;11.756;2022-09-09T04:55:32;19.80;82.40
55313;DHT22;46892;45.668;11.756;2022-09-09T04:57:57;19.90;82.10
55313;DHT22;46892;45.668;11.756;2022-09-09T05:00:24;19.90;82.10
55313;DHT22;46892;45.668;11.756;2022-09-09T05:02:50;19.90;82.10
55313;DHT22;46892;45.668;11.756;2022-09-09T05:05:16;19.80;82.70
55313;DHT22;46892;45.668;11.756;2022-09-09T05:07:42;19.80;82.80
55313;DHT22;46892;45.668;11.756;2022-09-09T05:10:09;19.80;82.90
55313;DHT22;46892;45.668;11.756;2022-09-09T05:12:36;19.90;82.40
55313;DHT22;46892;45.668;11.756;2022-09-09T05:15:01;19.90;82.50
55313;DHT22;46892;45.668;11.756;2022-09-09T05:17:27;19.90;82.40
55313;DHT22;46892;45.668;11.756;2022-09-09T05:19:53;20.00;82.50
55313;DHT22;46892;45.668;11.756;2022-09-09T05:22:21;20.00;82.70
55313;DHT22;46892;45.668;11.756;2022-09-09T05:24:49;20.00;83.00
55313;DHT22;46892;45.668;11.756;2022-09-09T05:27:17;20.00;83.00
55313;DHT22;46892;45.668;11.756;2022-09-09T05:29:43;20.00;83.00
55313;DHT22;46892;45.668;11.756;2022-09-09T05:32:10;20.00;83.70
55313;DHT22;46892;45.668;11.756;2022-09-09T05:34:35;20.00;83.80
55313;DHT22;46892;45.668;11.756;2022-09-09T05:37:03;20.00;83.60
55313;DHT22;46892;45.668;11.756;2022-09-09T05:39:29;20.10;83.60
55313;DHT22;46892;45.668;11.756;2022-09-09T05:41:55;20.20;84.10
55313;DHT22;46892;45.668;11.756;2022-09-09T05:44:21;20.30;84.40
55313;DHT22;46892;45.668;11.756;2022-09-09T05:46:48;20.30;84.50
55313;DHT22;46892;45.668;11.756;2022-09-09T05:49:15;20.30;84.60
55313;DHT22;46892;45.668;11.756;2022-09-09T05:51:41;20.40;84.30
55313;DHT22;46892;45.668;11.756;2022-09-09T05:54:08;20.60;83.70
55313;DHT22;46892;45.668;11.756;2022-09-09T05:56:34;20.70;82.60
55313;DHT22;46892;45.668;11.756;2022-09-09T05:59:00;20.80;82.50
55313;DHT22;46892;45.668;11.756;2022-09-09T06:01:30;20.80;83.00
55313;DHT22;46892;45.668;11.756;2022-09-09T06:03:56;20.80;83.00
55313;DHT22;46892;45.668;11.756;2022-09-09T06:06:24;20.80;82.30
55313;DHT22;46892;45.668;11.756;2022-09-09T06:08:53;20.80;81.50
55313;DHT22;46892;45.668;11.756;2022-09-09T06:11:24;20.80;81.00
55313;DHT22;46892;45.668;11.756;2022-09-09T06:13:51;20.90;80.80
55313;DHT22;46892;45.668;11.756;2022-09-09T06:16:20;20.90;80.70
55313;DHT22;46892;45.668;11.756;2022-09-09T06:18:48;20.90;80.40
55313;DHT22;46892;45.668;11.756;2022-09-09T06:21:23;21.00;80.20
55313;DHT22;46892;45.668;11.756;2022-09-09T06:23:49;21.00;80.00
55313;DHT22;46892;45.668;11.756;2022-09-09T06:28:46;21.20;79.90
55313;DHT22;46892;45.668;11.756;2022-09-09T06:31:14;21.40;80.40
55313;DHT22;46892;45.668;11.756;2022-09-09T06:33:43;21.50;79.90
55313;DHT22;46892;45.668;11.756;2022-09-09T06:36:14;21.60;79.30
55313;DHT22;46892;45.668;11.756;2022-09-09T06:38:40;21.70;78.80
55313;DHT22;46892;45.668;11.756;2022-09-09T06:41:07;21.70;79.10
55313;DHT22;46892;45.668;11.756;2022-09-09T06:43:33;21.80;78.80
55313;DHT22;46892;45.668;11.756;2022-09-09T06:46:05;21.80;78.40
55313;DHT22;46892;45.668;11.756;2022-09-09T06:48:32;21.80;78.00
55313;DHT22;46892;45.668;11.756;2022-09-09T06:51:06;21.80;77.60
55313;DHT22;46892;45.668;11.756;2022-09-09T06:53:33;21.80;78.00
55313;DHT22;46892;45.668;11.756;2022-09-09T06:56:01;21.80;77.60
55313;DHT22;46892;45.668;11.756;2022-09-09T06:58:27;21.80;78.00
55313;DHT22;46892;45.668;11.756;2022-09-09T07:01:04;21.90;77.90
55313;DHT22;46892;45.668;11.756;2022-09-09T07:03:30;22.00;78.10
55313;DHT22;46892;45.668;11.756;2022-09-09T07:05:57;22.20;76.70
55313;DHT22;46892;45.668;11.756;2022-09-09T07:08:23;22.30;76.70
55313;DHT22;46892;45.668;11.756;2022-09-09T07:10:50;22.50;76.40
55313;DHT22;46892;45.668;11.756;2022-09-09T07:13:25;22.50;76.30
55313;DHT22;46892;45.668;11.756;2022-09-09T07:15:52;22.60;76.30
55313;DHT22;46892;45.668;11.756;2022-09-09T07:18:18;22.50;75.10
55313;DHT22;46892;45.668;11.756;2022-09-09T07:20:53;22.50;75.80
55313;DHT22;46892;45.668;11.756;2022-09-09T07:23:19;22.50;75.40
55313;DHT22;46892;45.668;11.756;2022-09-09T07:25:45;22.70;76.30
55313;DHT22;46892;45.668;11.756;2022-09-09T07:28:11;22.70;75.70
55313;DHT22;46892;45.668;11.756;2022-09-09T07:30:36;22.80;75.50
55313;DHT22;46892;45.668;11.756;2022-09-09T07:33:02;22.70;75.70
55313;DHT22;46892;45.668;11.756;2022-09-09T07:35:28;22.70;75.50
55313;DHT22;46892;45.668;11.756;2022-09-09T07:37:54;22.70;76.40
55313;DHT22;46892;45.668;11.756;2022-09-09T07:40:20;22.70;75.90
55313;DHT22;46892;45.668;11.756;2022-09-09T07:42:47;22.80;76.10
55313;DHT22;46892;45.668;11.756;2022-09-09T07:45:13;22.90;74.80
55313;DHT22;46892;45.668;11.756;2022-09-09T07:47:40;23.00;75.50
55313;DHT22;46892;45.668;11.756;2022-09-09T07:50:08;23.30;74.50
55313;DHT22;46892;45.668;11.756;2022-09-09T07:52:34;23.40;72.60
55313;DHT22;46892;45.668;11.756;2022-09-09T07:55:01;23.40;72.30
55313;DHT22;46892;45.668;11.756;2022-09-09T07:57:29;23.30;72.30
55313;DHT22;46892;45.668;11.756;2022-09-09T07:59:56;23.30;72.90
55313;DHT22;46892;45.668;11.756;2022-09-09T08:02:23;23.10;72.00
55313;DHT22;46892;45.668;11.756;2022-09-09T08:04:50;22.90;72.90
55313;DHT22;46892;45.668;11.756;2022-09-09T08:07:17;22.90;73.40
55313;DHT22;46892;45.668;11.756;2022-09-09T08:09:42;22.90;74.10
55313;DHT22;46892;45.668;11.756;2022-09-09T08:12:09;23.10;74.40
55313;DHT22;46892;45.668;11.756;2022-09-09T08:14:38;23.00;74.40
55313;DHT22;46892;45.668;11.756;2022-09-09T08:17:05;22.90;75.30
55313;DHT22;46892;45.668;11.756;2022-09-09T08:19:31;23.00;75.20
55313;DHT22;46892;45.668;11.756;2022-09-09T08:22:01;23.30;74.60
55313;DHT22;46892;45.668;11.756;2022-09-09T08:24:28;23.60;74.10
55313;DHT22;46892;45.668;11.756;2022-09-09T08:26:54;23.70;71.90
55313;DHT22;46892;45.668;11.756;2022-09-09T08:29:20;23.80;72.20
55313;DHT22;46892;45.668;11.756;2022-09-09T08:31:51;24.00;71.00
55313;DHT22;46892;45.668;11.756;2022-09-09T08:34:20;24.00;72.30
55313;DHT22;46892;45.668;11.756;2022-09-09T08:36:47;24.10;72.00
55313;DHT22;46892;45.668;11.756;2022-09-09T08:39:15;24.10;69.90
55313;DHT22;46892;45.668;11.756;2022-09-09T08:41:57;24.20;69.60
55313;DHT22;46892;45.668;11.756;2022-09-09T08:57:57;23.90;70.60
55313;DHT22;46892;45.668;11.756;2022-09-09T09:00:35;24.00;70.00
55313;DHT22;46892;45.668;11.756;2022-09-09T09:03:15;24.20;70.30
55313;DHT22;46892;45.668;11.756;2022-09-09T09:08:59;24.40;70.50
55313;DHT22;46892;45.668;11.756;2022-09-09T09:11:26;24.50;70.70
55313;DHT22;46892;45.668;11.756;2022-09-09T09:13:57;24.40;68.20
55313;DHT22;46892;45.668;11.756;2022-09-09T09:16:31;24.60;70.00
55313;DHT22;46892;45.668;11.756;2022-09-09T09:18:59;24.60;68.20
55313;DHT22;46892;45.668;11.756;2022-09-09T09:21:41;24.60;69.10
55313;DHT22;46892;45.668;11.756;2022-09-09T09:27:14;24.60;69.00
55313;DHT22;46892;45.668;11.756;2022-09-09T09:29:41;24.70;67.60
55313;DHT22;46892;45.668;11.756;2022-09-09T09:32:14;24.60;67.60
55313;DHT22;46892;45.668;11.756;2022-09-09T09:34:41;24.70;68.80
55313;DHT22;46892;45.668;11.756;2022-09-09T09:37:16;24.70;66.10
55313;DHT22;46892;45.668;11.756;2022-09-09T09:39:45;24.80;66.60
55313;DHT22;46892;45.668;11.756;2022-09-09T09:42:16;24.80;67.00
55313;DHT22;46892;45.668;11.756;2022-09-09T09:44:43;24.90;66.50
55313;DHT22;46892;45.668;11.756;2022-09-09T09:47:18;24.90;66.50
55313;DHT22;46892;45.668;11.756;2022-09-09T09:49:54;24.90;66.50
55313;DHT22;46892;45.668;11.756;2022-09-09T09:52:28;25.00;63.90
55313;DHT22;46892;45.668;11.756;2022-09-09T09:54:55;24.90;65.40
55313;DHT22;46892;45.668;11.756;2022-09-09T09:57:28;25.00;66.50
55313;DHT22;46892;45.668;11.756;2022-09-09T10:00:22;24.90;65.10
55313;DHT22;46892;45.668;11.756;2022-09-09T10:02:49;24.90;64.80
55313;DHT22;46892;45.668;11.756;2022-09-09T10:05:20;24.80;66.00
55313;DHT22;46892;45.668;11.756;2022-09-09T10:07:47;24.90;66.00
55313;DHT22;46892;45.668;11.756;2022-09-09T10:10:26;24.90;66.10
55313;DHT22;46892;45.668;11.756;2022-09-09T10:13:06;25.00;66.00
55313;DHT22;46892;45.668;11.756;2022-09-09T10:19:09;25.10;66.20
55313;DHT22;46892;45.668;11.756;2022-09-09T10:22:15;25.10;64.50
55313;DHT22;46892;45.668;11.756;2022-09-09T10:30:19;25.40;66.40
55313;DHT22;46892;45.668;11.756;2022-09-09T10:32:52;25.30;65.60
55313;DHT22;46892;45.668;11.756;2022-09-09T10:35:30;25.20;67.30
55313;DHT22;46892;45.668;11.756;2022-09-09T10:38:20;25.30;65.90
55313;DHT22;46892;45.668;11.756;2022-09-09T10:55:19;24.90;65.00
55313;DHT22;46892;45.668;11.756;2022-09-09T10:57:48;24.90;65.80
55313;DHT22;46892;45.668;11.756;2022-09-09T11:00:23;24.90;65.30
55313;DHT22;46892;45.668;11.756;2022-09-09T11:03:02;24.90;66.80
55313;DHT22;46892;45.668;11.756;2022-09-09T11:05:33;24.90;66.30
55313;DHT22;46892;45.668;11.756;2022-09-09T11:13:42;25.10;66.80
55313;DHT22;46892;45.668;11.756;2022-09-09T11:16:46;25.20;67.20
55313;DHT22;46892;45.668;11.756;2022-09-09T11:19:41;25.50;64.40
55313;DHT22;46892;45.668;11.756;2022-09-09T11:23:00;25.50;65.80
55313;DHT22;46892;45.668;11.756;2022-09-09T11:39:38;25.20;64.10
55313;DHT22;46892;45.668;11.756;2022-09-09T11:44:38;25.30;65.30
55313;DHT22;46892;45.668;11.756;2022-09-09T11:47:28;25.30;65.20
55313;DHT22;46892;45.668;11.756;2022-09-09T11:52:42;25.20;66.10
55313;DHT22;46892;45.668;11.756;2022-09-09T11:55:32;25.20;65.20
55313;DHT22;46892;45.668;11.756;2022-09-09T11:58:04;25.20;66.10
55313;DHT22;46892;45.668;11.756;2022-09-09T12:00:39;25.10;67.00
55313;DHT22;46892;45.668;11.756;2022-09-09T12:03:40;25.10;65.30
55313;DHT22;46892;45.668;11.756;2022-09-09T12:08:50;24.90;65.50
55313;DHT22;46892;45.668;11.756;2022-09-09T12:11:29;24.80;66.50
55313;DHT22;46892;45.668;11.756;2022-09-09T12:13:57;24.70;66.80
55313;DHT22;46892;45.668;11.756;2022-09-09T12:16:42;24.70;67.30
55313;DHT22;46892;45.668;11.756;2022-09-09T12:19:16;24.60;67.70
55313;DHT22;46892;45.668;11.756;2022-09-09T12:21:58;24.60;68.20
55313;DHT22;46892;45.668;11.756;2022-09-09T12:27:05;24.50;71.00
55313;DHT22;46892;45.668;11.756;2022-09-09T12:29:48;24.50;72.50
55313;DHT22;46892;45.668;11.756;2022-09-09T12:32:22;23.80;65.50
55313;DHT22;46892;45.668;11.756;2022-09-09T12:34:55;21.90;72.90
55313;DHT22;46892;45.668;11.756;2022-09-09T12:42:48;19.30;82.60
55313;DHT22;46892;45.668;11.756;2022-09-09T12:45:25;19.40;78.10
55313;DHT22;46892;45.668;11.756;2022-09-09T12:50:25;19.40;80.30
55313;DHT22;46892;45.668;11.756;2022-09-09T12:52:57;19.30;78.80
55313;DHT22;46892;45.668;11.756;2022-09-09T12:55:32;19.30;79.40
55313;DHT22;46892;45.668;11.756;2022-09-09T12:58:00;19.30;79.20
55313;DHT22;46892;45.668;11.756;2022-09-09T13:00:30;19.30;79.40
55313;DHT22;46892;45.668;11.756;2022-09-09T13:02:58;19.40;80.10
55313;DHT22;46892;45.668;11.756;2022-09-09T13:05:37;19.50;80.60
55313;DHT22;46892;45.668;11.756;2022-09-09T13:08:06;19.60;81.30
55313;DHT22;46892;45.668;11.756;2022-09-09T13:10:38;19.70;79.50
55313;DHT22;46892;45.668;11.756;2022-09-09T13:13:14;19.70;79.70
55313;DHT22;46892;45.668;11.756;2022-09-09T13:15:40;19.60;79.20
55313;DHT22;46892;45.668;11.756;2022-09-09T13:18:14;19.60;78.30
55313;DHT22;46892;45.668;11.756;2022-09-09T13:20:46;19.60;78.10
55313;DHT22;46892;45.668;11.756;2022-09-09T13:23:12;19.70;78.50
55313;DHT22;46892;45.668;11.756;2022-09-09T13:25:38;19.80;79.50
55313;DHT22;46892;45.668;11.756;2022-09-09T13:28:18;20.00;80.90
55313;DHT22;46892;45.668;11.756;2022-09-09T13:30:58;20.00;80.30
55313;DHT22;46892;45.668;11.756;2022-09-09T13:33:32;20.20;81.10
55313;DHT22;46892;45.668;11.756;2022-09-09T13:36:05;20.40;78.50
55313;DHT22;46892;45.668;11.756;2022-09-09T13:38:35;20.40;78.40
55313;DHT22;46892;45.668;11.756;2022-09-09T13:41:09;20.50;79.40
55313;DHT22;46892;45.668;11.756;2022-09-09T13:43:38;20.70;78.10
55313;DHT22;46892;45.668;11.756;2022-09-09T13:46:35;20.80;77.20
55313;DHT22;46892;45.668;11.756;2022-09-09T13:49:18;20.90;78.50
55313;DHT22;46892;45.668;11.756;2022-09-09T13:51:46;20.90;77.70
55313;DHT22;46892;45.668;11.756;2022-09-09T13:54:14;21.00;77.90
55313;DHT22;46892;45.668;11.756;2022-09-09T13:56:41;21.00;76.70
55313;DHT22;46892;45.668;11.756;2022-09-09T13:59:13;21.20;77.10
55313;DHT22;46892;45.668;11.756;2022-09-09T14:01:40;21.30;73.70
55313;DHT22;46892;45.668;11.756;2022-09-09T14:04:06;21.50;76.10
55313;DHT22;46892;45.668;11.756;2022-09-09T14:06:33;21.50;74.30
55313;DHT22;46892;45.668;11.756;2022-09-09T14:09:00;21.70;75.60
55313;DHT22;46892;45.668;11.756;2022-09-09T14:11:27;21.70;75.20
55313;DHT22;46892;45.668;11.756;2022-09-09T14:13:53;21.80;74.50
55313;DHT22;46892;45.668;11.756;2022-09-09T14:16:19;22.00;74.90
55313;DHT22;46892;45.668;11.756;2022-09-09T14:18:46;22.00;74.80
55313;DHT22;46892;45.668;11.756;2022-09-09T14:21:12;22.10;74.80
55313;DHT22;46892;45.668;11.756;2022-09-09T14:23:38;22.20;76.50
55313;DHT22;46892;45.668;11.756;2022-09-09T14:26:07;22.40;77.70
55313;DHT22;46892;45.668;11.756;2022-09-09T14:28:34;22.40;77.20
55313;DHT22;46892;45.668;11.756;2022-09-09T14:31:01;22.50;75.10
55313;DHT22;46892;45.668;11.756;2022-09-09T14:33:27;22.50;75.40
55313;DHT22;46892;45.668;11.756;2022-09-09T14:35:58;22.60;76.30
55313;DHT22;46892;45.668;11.756;2022-09-09T14:38:25;22.70;76.90
55313;DHT22;46892;45.668;11.756;2022-09-09T14:40:50;22.60;73.40
55313;DHT22;46892;45.668;11.756;2022-09-09T14:43:16;22.60;73.80
55313;DHT22;46892;45.668;11.756;2022-09-09T14:45:42;22.60;73.30
55313;DHT22;46892;45.668;11.756;2022-09-09T14:48:08;22.70;74.50
55313;DHT22;46892;45.668;11.756;2022-09-09T14:50:34;22.70;74.80
55313;DHT22;46892;45.668;11.756;2022-09-09T14:53:02;22.80;72.30
55313;DHT22;46892;45.668;11.756;2022-09-09T14:55:27;22.80;72.00
55313;DHT22;46892;45.668;11.756;2022-09-09T14:57:54;22.80;72.10
55313;DHT22;46892;45.668;11.756;2022-09-09T15:00:20;22.70;72.40
55313;DHT22;46892;45.668;11.756;2022-09-09T15:02:45;22.80;71.60
55313;DHT22;46892;45.668;11.756;2022-09-09T15:05:11;22.80;71.20
55313;DHT22;46892;45.668;11.756;2022-09-09T15:07:37;22.70;69.40
55313;DHT22;46892;45.668;11.756;2022-09-09T15:10:04;22.80;68.20
55313;DHT22;46892;45.668;11.756;2022-09-09T15:12:30;22.80;69.80
55313;DHT22;46892;45.668;11.756;2022-09-09T15:14:55;22.80;68.70
55313;DHT22;46892;45.668;11.756;2022-09-09T15:17:21;22.80;69.40
55313;DHT22;46892;45.668;11.756;2022-09-09T15:19:47;22.80;67.00
55313;DHT22;46892;45.668;11.756;2022-09-09T15:22:13;22.80;68.30
55313;DHT22;46892;45.668;11.756;2022-09-09T15:24:39;22.80;67.80
55313;DHT22;46892;45.668;11.756;2022-09-09T15:27:05;22.80;67.00
55313;DHT22;46892;45.668;11.756;2022-09-09T15:29:30;22.90;68.30
55313;DHT22;46892;45.668;11.756;2022-09-09T15:31:56;23.00;68.40
55313;DHT22;46892;45.668;11.756;2022-09-09T15:34:22;22.90;68.00
55313;DHT22;46892;45.668;11.756;2022-09-09T15:36:48;23.00;66.90
55313;DHT22;46892;45.668;11.756;2022-09-09T15:39:16;23.00;67.50
55313;DHT22;46892;45.668;11.756;2022-09-09T15:41:43;23.00;67.20
55313;DHT22;46892;45.668;11.756;2022-09-09T15:44:10;23.10;66.40
55313;DHT22;46892;45.668;11.756;2022-09-09T15:46:43;23.10;67.70
55313;DHT22;46892;45.668;11.756;2022-09-09T15:49:20;23.10;68.40
55313;DHT22;46892;45.668;11.756;2022-09-09T15:51:59;23.10;68.80
55313;DHT22;46892;45.668;11.756;2022-09-09T15:54:31;23.20;68.60
55313;DHT22;46892;45.668;11.756;2022-09-09T15:56:59;23.20;68.00
55313;DHT22;46892;45.668;11.756;2022-09-09T15:59:27;23.20;68.30
55313;DHT22;46892;45.668;11.756;2022-09-09T16:01:53;23.20;68.00
55313;DHT22;46892;45.668;11.756;2022-09-09T16:04:21;23.10;68.70
55313;DHT22;46892;45.668;11.756;2022-09-09T16:06:58;23.10;68.90
55313;DHT22;46892;45.668;11.756;2022-09-09T16:09:24;23.00;69.70
55313;DHT22;46892;45.668;11.756;2022-09-09T16:11:51;23.00;69.90
55313;DHT22;46892;45.668;11.756;2022-09-09T16:14:18;23.00;70.50
55313;DHT22;46892;45.668;11.756;2022-09-09T16:16:45;23.00;70.70
55313;DHT22;46892;45.668;11.756;2022-09-09T16:19:12;23.00;71.70
55313;DHT22;46892;45.668;11.756;2022-09-09T16:21:41;23.00;70.80
55313;DHT22;46892;45.668;11.756;2022-09-09T16:24:08;23.00;71.10
55313;DHT22;46892;45.668;11.756;2022-09-09T16:26:36;23.00;70.90
55313;DHT22;46892;45.668;11.756;2022-09-09T16:29:03;23.10;70.90
55313;DHT22;46892;45.668;11.756;2022-09-09T16:31:30;23.10;70.70
55313;DHT22;46892;45.668;11.756;2022-09-09T16:33:57;23.00;71.20
55313;DHT22;46892;45.668;11.756;2022-09-09T16:36:28;23.00;71.60
55313;DHT22;46892;45.668;11.756;2022-09-09T16:38:57;23.10;71.80
55313;DHT22;46892;45.668;11.756;2022-09-09T16:41:24;23.20;71.40
55313;DHT22;46892;45.668;11.756;2022-09-09T16:44:00;23.30;71.60
55313;DHT22;46892;45.668;11.756;2022-09-09T16:46:28;23.40;71.40
55313;DHT22;46892;45.668;11.756;2022-09-09T16:48:57;23.60;71.60
55313;DHT22;46892;45.668;11.756;2022-09-09T16:53:53;24.10;70.30
55313;DHT22;46892;45.668;11.756;2022-09-09T16:56:22;24.40;69.30
55313;DHT22;46892;45.668;11.756;2022-09-09T16:58:54;24.60;68.60
55313;DHT22;46892;45.668;11.756;2022-09-09T17:01:25;24.70;68.10
55313;DHT22;46892;45.668;11.756;2022-09-09T17:03:57;24.80;67.90
55313;DHT22;46892;45.668;11.756;2022-09-09T17:06:23;25.00;67.50
55313;DHT22;46892;45.668;11.756;2022-09-09T17:08:57;25.20;67.70
55313;DHT22;46892;45.668;11.756;2022-09-09T17:11:22;25.10;67.50
55313;DHT22;46892;45.668;11.756;2022-09-09T17:13:49;25.10;68.10
55313;DHT22;46892;45.668;11.756;2022-09-09T17:16:17;24.90;68.50
55313;DHT22;46892;45.668;11.756;2022-09-09T17:18:44;24.70;68.30
55313;DHT22;46892;45.668;11.756;2022-09-09T17:21:17;24.50;68.50
55313;DHT22;46892;45.668;11.756;2022-09-09T17:23:44;24.30;69.00
55313;DHT22;46892;45.668;11.756;2022-09-09T17:26:12;24.10;69.80
55313;DHT22;46892;45.668;11.756;2022-09-09T17:28:39;23.80;70.00
55313;DHT22;46892;45.668;11.756;2022-09-09T17:31:07;23.60;70.90
55313;DHT22;46892;45.668;11.756;2022-09-09T17:33:35;23.30;72.10
55313;DHT22;46892;45.668;11.756;2022-09-09T17:36:07;23.20;72.60
55313;DHT22;46892;45.668;11.756;2022-09-09T17:38:33;23.10;72.80